Terminal Aerodrome Forecast
Issued by NWS

Home | Current Version | Previous Version | Text Only | Print | Product List | Glossary On
Versions: 1 2 3 4 5 6 7 8 9 10 11 12 13 14 15 16 17 18 19 20 21 22 23 24 25 26 27 28 29 30 31 32
000
FTUS41 KOKX 300535
TAFTEB
TAF
KTEB 300535Z 3006/3106 VRB03KT P6SM BKN250
     FM300900 VRB03KT 5SM BR SCT005 BKN250
      TEMPO 3010/3012 BKN005
     FM301300 19006KT P6SM FEW015 BKN250
     FM301700 19013G19KT P6SM SCT040 BKN250
     FM310000 20008KT P6SM SCT040 SCT250=

USA.gov is the U.S. government's official web portal to all federal, state and local government web resources and services.